Time;durP1;ratioP1;P1;durP2;ratioP2;P2;SDS_P1;SDS_P2;PMS_P1;PMS_P2;Temp;Humidity;BMP_temperature;BMP_pressure;BME280_temperature;BME280_humidity;BME280_pressure;Samples;Min_cycle;Max_cycle;Signal;HPM_P1;HPM_P2
2022/02/07 00:00:21;;;;;;;130.00;79.10;;;;;;;;;;5013959;28;20066;-58
2022/02/07 00:05:22;;;;;;;122.97;78.33;;;;;;;;;;5015328;28;20396;-56
2022/02/07 00:07:48;;;;;;;135.10;79.47;;;;;;;;;;5013480;28;20124;-57
2022/02/07 00:10:14;;;;;;;128.07;80.40;;;;;;;;;;5013891;28;20053;-57
2022/02/07 00:12:41;;;;;;;126.77;77.87;;;;;;;;;;5014448;28;20040;-54
2022/02/07 00:15:08;;;;;;;124.03;75.77;;;;;;;;;;5015328;28;20026;-56
2022/02/07 00:17:35;;;;;;;128.30;80.27;;;;;;;;;;5014751;28;20072;-56
2022/02/07 00:20:06;;;;;;;132.67;79.40;;;;;;;;;;5009971;28;20383;-59
2022/02/07 00:22:32;;;;;;;132.40;79.50;;;;;;;;;;5014304;28;20038;-53
2022/02/07 00:24:58;;;;;;;133.90;78.67;;;;;;;;;;5015456;28;20117;-59
2022/02/07 00:27:24;;;;;;;128.77;78.70;;;;;;;;;;5007078;28;20124;-58
2022/02/07 00:29:50;;;;;;;132.50;77.93;;;;;;;;;;5015358;28;20025;-57
2022/02/07 00:32:16;;;;;;;137.30;80.57;;;;;;;;;;5012605;28;20037;-53
2022/02/07 00:34:42;;;;;;;133.60;80.60;;;;;;;;;;5015115;28;20025;-57
2022/02/07 00:37:08;;;;;;;136.03;78.17;;;;;;;;;;5014028;28;20030;-57
2022/02/07 00:45:41;;;;;;;131.48;77.18;;;;;;;;;;5014566;28;20049;-56
2022/02/07 00:48:10;;;;;;;130.80;79.97;;;;;;;;;;5014796;28;20507;-57
2022/02/07 00:50:38;;;;;;;134.27;78.80;;;;;;;;;;5014950;28;20033;-58
2022/02/07 00:53:05;;;;;;;134.20;78.33;;;;;;;;;;5012041;28;20034;-54
2022/02/07 00:55:31;;;;;;;139.37;78.83;;;;;;;;;;5014664;28;20045;-55
2022/02/07 00:57:57;;;;;;;129.23;78.10;;;;;;;;;;5013753;28;20037;-54
2022/02/07 01:00:24;;;;;;;138.60;83.17;;;;;;;;;;5014767;28;20026;-57
2022/02/07 01:02:50;;;;;;;138.77;80.60;;;;;;;;;;5013563;28;20048;-55
2022/02/07 01:05:16;;;;;;;136.70;79.30;;;;;;;;;;5014678;28;20022;-53
2022/02/07 01:07:46;;;;;;;134.90;77.90;;;;;;;;;;5013350;28;20030;-54
2022/02/07 01:10:15;;;;;;;128.57;76.73;;;;;;;;;;5014323;28;20044;-57
2022/02/07 01:15:27;;;;;;;129.20;76.13;;;;;;;;;;5013231;28;20028;-55
2022/02/07 01:57:54;;;;;;;122.77;73.67;;;;;;;;;;4994229;28;20029;-57
2022/02/07 02:00:20;;;;;;;119.13;72.60;;;;;;;;;;4993499;28;20030;-58
2022/02/07 02:02:46;;;;;;;117.27;72.73;;;;;;;;;;5013761;28;20041;-56
2022/02/07 02:05:13;;;;;;;119.27;72.57;;;;;;;;;;5012703;28;20014;-57
2022/02/07 02:07:40;;;;;;;112.90;70.47;;;;;;;;;;5013396;28;20108;-57
2022/02/07 02:10:06;;;;;;;114.17;71.63;;;;;;;;;;5013395;28;20026;-57
2022/02/07 02:12:37;;;;;;;114.63;70.63;;;;;;;;;;5011455;28;20033;-59
2022/02/07 02:20:46;;;;;;;109.87;69.87;;;;;;;;;;5012372;28;20168;-56
2022/02/07 02:34:41;;;;;;;106.07;68.70;;;;;;;;;;5013516;28;20106;-57
2022/02/07 02:46:54;;;;;;;111.67;70.47;;;;;;;;;;5012199;28;20041;-59
2022/02/07 02:49:21;;;;;;;112.00;71.83;;;;;;;;;;5012982;28;20491;-54
2022/02/07 02:51:47;;;;;;;106.00;67.87;;;;;;;;;;5012013;28;20030;-57
2022/02/07 02:54:13;;;;;;;106.00;67.80;;;;;;;;;;5012121;28;20497;-58
2022/02/07 02:56:39;;;;;;;106.50;67.63;;;;;;;;;;5011837;28;20549;-55
2022/02/07 02:59:05;;;;;;;112.60;68.40;;;;;;;;;;5012956;28;20426;-58
2022/02/07 03:01:32;;;;;;;113.07;68.50;;;;;;;;;;5012062;28;20550;-56
2022/02/07 03:03:58;;;;;;;108.97;69.53;;;;;;;;;;5015356;28;20076;-58
2022/02/07 03:06:24;;;;;;;114.33;71.13;;;;;;;;;;5015687;28;20104;-58
2022/02/07 03:08:50;;;;;;;109.63;69.10;;;;;;;;;;5016669;28;20026;-57
2022/02/07 03:11:19;;;;;;;108.00;67.83;;;;;;;;;;5015813;28;20045;-56
2022/02/07 03:18:57;;;;;;;108.43;67.30;;;;;;;;;;5016572;28;20072;-58
2022/02/07 03:21:23;;;;;;;98.97;65.07;;;;;;;;;;5016967;28;20030;-58
2022/02/07 03:23:49;;;;;;;100.37;62.63;;;;;;;;;;5016167;28;20099;-57
2022/02/07 03:26:18;;;;;;;108.03;67.33;;;;;;;;;;5021767;28;20034;-57
2022/02/07 03:28:44;;;;;;;97.10;64.53;;;;;;;;;;5016052;28;20045;-57
2022/02/07 03:31:10;;;;;;;98.07;62.90;;;;;;;;;;5014415;28;20058;-57
2022/02/07 03:33:37;;;;;;;101.50;66.77;;;;;;;;;;5016199;28;20050;-56
2022/02/07 03:36:04;;;;;;;103.53;66.23;;;;;;;;;;5015239;28;20022;-58
2022/02/07 03:38:30;;;;;;;95.03;63.63;;;;;;;;;;5016046;28;20025;-57
2022/02/07 03:40:56;;;;;;;106.17;65.90;;;;;;;;;;5014198;28;20026;-57
2022/02/07 03:43:23;;;;;;;98.27;64.30;;;;;;;;;;5015275;28;20129;-57
2022/02/07 03:45:49;;;;;;;99.60;64.90;;;;;;;;;;5015133;28;20033;-57
2022/02/07 03:48:15;;;;;;;101.27;65.90;;;;;;;;;;5015708;28;20193;-59
2022/02/07 03:50:41;;;;;;;97.53;63.50;;;;;;;;;;5015117;28;20108;-58
2022/02/07 03:53:07;;;;;;;94.50;63.40;;;;;;;;;;5015555;28;20035;-59
2022/02/07 03:55:33;;;;;;;96.43;62.30;;;;;;;;;;5015688;28;20540;-56
2022/02/07 03:57:59;;;;;;;95.20;62.47;;;;;;;;;;5000355;28;20476;-60
2022/02/07 04:00:26;;;;;;;95.57;62.47;;;;;;;;;;4996388;28;20030;-58
2022/02/07 04:02:53;;;;;;;87.27;59.83;;;;;;;;;;5011373;28;20072;-56
2022/02/07 04:07:48;;;;;;;93.77;61.47;;;;;;;;;;5014996;28;20038;-57
2022/02/07 04:10:15;;;;;;;91.00;60.77;;;;;;;;;;5013780;28;20029;-57
2022/02/07 04:12:47;;;;;;;91.77;60.17;;;;;;;;;;5014337;28;20058;-57
2022/02/07 04:15:16;;;;;;;89.40;59.43;;;;;;;;;;5014290;28;20026;-55
2022/02/07 04:17:48;;;;;;;87.97;59.90;;;;;;;;;;5014562;28;20026;-55
2022/02/07 04:20:15;;;;;;;91.63;60.37;;;;;;;;;;5015429;28;20084;-58
2022/02/07 04:22:42;;;;;;;92.13;58.13;;;;;;;;;;5014216;28;20030;-57
2022/02/07 04:25:08;;;;;;;88.07;58.77;;;;;;;;;;5015421;28;20029;-57
2022/02/07 04:27:34;;;;;;;90.13;60.23;;;;;;;;;;5014482;28;20030;-57
2022/02/07 04:30:00;;;;;;;88.90;59.63;;;;;;;;;;5014940;28;20033;-56
2022/02/07 04:32:26;;;;;;;90.37;58.67;;;;;;;;;;5012630;28;20095;-56
2022/02/07 04:34:52;;;;;;;90.00;60.67;;;;;;;;;;5015458;28;20065;-58
2022/02/07 04:37:18;;;;;;;86.37;57.67;;;;;;;;;;5014254;28;20113;-58
2022/02/07 04:39:44;;;;;;;95.93;60.40;;;;;;;;;;5014093;28;20073;-57
2022/02/07 04:42:12;;;;;;;88.87;60.03;;;;;;;;;;5012910;28;20061;-56
2022/02/07 04:44:52;;;;;;;86.20;57.17;;;;;;;;;;5014752;28;20029;-56
2022/02/07 04:55:31;;;;;;;86.37;57.50;;;;;;;;;;5015505;28;20474;-57
2022/02/07 04:58:07;;;;;;;86.53;56.27;;;;;;;;;;5012280;28;20061;-57
2022/02/07 05:00:44;;;;;;;84.60;57.87;;;;;;;;;;5014627;28;20033;-57
2022/02/07 05:03:17;;;;;;;80.73;55.27;;;;;;;;;;5013767;28;20120;-58
2022/02/07 05:14:17;;;;;;;86.50;56.60;;;;;;;;;;5012280;28;20106;-57
2022/02/07 05:16:43;;;;;;;81.70;54.83;;;;;;;;;;5013382;28;20361;-57
2022/02/07 05:19:09;;;;;;;82.33;55.47;;;;;;;;;;5013398;28;20080;-55
2022/02/07 05:21:35;;;;;;;83.70;57.40;;;;;;;;;;5013298;28;20112;-56
2022/02/07 05:24:01;;;;;;;83.63;55.03;;;;;;;;;;5013068;28;20555;-56
2022/02/07 05:26:27;;;;;;;77.67;53.10;;;;;;;;;;5013546;28;20101;-57
2022/02/07 05:28:54;;;;;;;80.47;53.23;;;;;;;;;;5013489;28;20037;-57
2022/02/07 05:31:21;;;;;;;79.20;54.80;;;;;;;;;;5013329;28;20061;-55
2022/02/07 05:33:48;;;;;;;79.70;55.43;;;;;;;;;;5013195;28;20026;-56
2022/02/07 05:36:14;;;;;;;76.13;52.17;;;;;;;;;;5013933;28;20085;-56
2022/02/07 05:38:44;;;;;;;76.10;51.27;;;;;;;;;;5012129;28;20030;-57
2022/02/07 05:41:12;;;;;;;77.63;52.70;;;;;;;;;;4995266;28;20034;-56
2022/02/07 05:43:40;;;;;;;79.27;51.97;;;;;;;;;;5013082;28;20472;-58
2022/02/07 05:46:06;;;;;;;71.83;50.30;;;;;;;;;;5013848;28;20110;-56
2022/02/07 05:48:32;;;;;;;77.87;54.03;;;;;;;;;;5011411;28;20411;-56
2022/02/07 05:50:58;;;;;;;71.90;51.87;;;;;;;;;;5012062;28;20026;-55
2022/02/07 05:53:24;;;;;;;71.67;50.63;;;;;;;;;;5013108;28;20026;-54
2022/02/07 05:55:50;;;;;;;73.00;51.13;;;;;;;;;;5013635;28;20029;-56
2022/02/07 05:58:16;;;;;;;80.60;51.70;;;;;;;;;;5012654;28;20032;-55
2022/02/07 06:00:42;;;;;;;74.77;50.10;;;;;;;;;;5013615;28;20033;-55
2022/02/07 06:03:08;;;;;;;77.50;51.60;;;;;;;;;;5012287;28;20046;-57
2022/02/07 06:05:34;;;;;;;70.70;48.33;;;;;;;;;;5012979;28;20459;-56
2022/02/07 06:08:01;;;;;;;79.43;51.43;;;;;;;;;;5012838;28;20041;-56
2022/02/07 06:10:27;;;;;;;77.73;51.47;;;;;;;;;;5013481;28;20022;-56
2022/02/07 06:12:53;;;;;;;77.20;52.33;;;;;;;;;;5010618;28;20072;-54
2022/02/07 06:15:19;;;;;;;76.00;51.93;;;;;;;;;;5012006;28;20030;-57
2022/02/07 06:17:52;;;;;;;73.40;50.90;;;;;;;;;;5009979;28;20479;-56
2022/02/07 06:20:18;;;;;;;74.97;51.50;;;;;;;;;;5012644;28;20049;-52
2022/02/07 06:22:45;;;;;;;70.83;48.73;;;;;;;;;;5012518;28;20049;-54
2022/02/07 06:25:11;;;;;;;77.73;51.30;;;;;;;;;;5013415;28;20109;-56
2022/02/07 06:27:37;;;;;;;76.63;50.70;;;;;;;;;;5012626;28;20018;-57
2022/02/07 06:30:04;;;;;;;74.53;49.90;;;;;;;;;;5013531;28;20036;-55
2022/02/07 06:32:30;;;;;;;72.23;48.67;;;;;;;;;;5011408;28;20037;-56
2022/02/07 06:34:56;;;;;;;72.90;50.37;;;;;;;;;;5012348;28;20077;-56
2022/02/07 06:37:22;;;;;;;70.37;46.80;;;;;;;;;;5013251;28;20136;-56
2022/02/07 06:39:48;;;;;;;73.07;50.47;;;;;;;;;;5016475;28;20057;-58
2022/02/07 06:42:15;;;;;;;73.37;49.03;;;;;;;;;;5017397;28;20034;-58
2022/02/07 06:44:41;;;;;;;68.57;46.07;;;;;;;;;;5016319;28;20159;-57
2022/02/07 06:47:07;;;;;;;70.17;47.77;;;;;;;;;;5017129;28;20037;-57
2022/02/07 06:49:33;;;;;;;66.50;46.63;;;;;;;;;;5016224;28;20049;-58
2022/02/07 06:51:59;;;;;;;64.63;45.60;;;;;;;;;;5017059;28;20026;-57
2022/02/07 06:54:25;;;;;;;63.07;44.37;;;;;;;;;;5016317;28;20030;-56
2022/02/07 06:56:52;;;;;;;60.87;42.57;;;;;;;;;;5017105;28;20022;-55
2022/02/07 06:59:19;;;;;;;62.57;43.40;;;;;;;;;;5015158;28;20044;-57
2022/02/07 07:01:46;;;;;;;61.00;41.30;;;;;;;;;;5015905;28;20105;-56
2022/02/07 07:04:12;;;;;;;63.40;41.60;;;;;;;;;;5014683;28;20039;-55
2022/02/07 07:06:39;;;;;;;58.97;39.57;;;;;;;;;;5016803;28;20486;-57
2022/02/07 07:09:07;;;;;;;64.60;39.90;;;;;;;;;;5015953;28;20097;-58
2022/02/07 07:11:33;;;;;;;54.83;35.63;;;;;;;;;;5016977;28;20022;-58
2022/02/07 07:14:14;;;;;;;53.93;35.83;;;;;;;;;;5016133;28;20034;-58
2022/02/07 07:16:50;;;;;;;48.57;32.20;;;;;;;;;;5016608;28;20026;-57
2022/02/07 07:19:16;;;;;;;48.00;32.60;;;;;;;;;;5015995;28;20037;-55
2022/02/07 07:21:42;;;;;;;52.83;33.77;;;;;;;;;;5016710;28;20391;-56
2022/02/07 07:24:09;;;;;;;53.07;34.67;;;;;;;;;;5014331;28;20030;-57
2022/02/07 07:26:36;;;;;;;53.10;37.07;;;;;;;;;;5014995;28;20033;-55
2022/02/07 07:29:07;;;;;;;53.97;38.03;;;;;;;;;;5015312;28;20057;-57
2022/02/07 07:31:40;;;;;;;47.90;34.83;;;;;;;;;;5015617;28;20124;-57
2022/02/07 07:34:06;;;;;;;52.13;36.60;;;;;;;;;;5015694;28;20033;-57
2022/02/07 07:36:32;;;;;;;59.07;37.30;;;;;;;;;;5016462;28;20089;-54
2022/02/07 07:38:58;;;;;;;49.63;35.20;;;;;;;;;;5015512;28;20029;-56
2022/02/07 07:41:26;;;;;;;50.53;34.03;;;;;;;;;;5016378;28;20026;-56
2022/02/07 07:43:52;;;;;;;49.37;34.23;;;;;;;;;;5015389;28;20044;-55
2022/02/07 07:46:24;;;;;;;51.47;35.00;;;;;;;;;;5016139;28;20109;-56
2022/02/07 07:48:58;;;;;;;48.20;33.87;;;;;;;;;;5014631;28;20050;-56
2022/02/07 07:51:39;;;;;;;46.15;32.28;;;;;;;;;;5015182;28;20435;-56
2022/02/07 07:54:30;;;;;;;43.40;29.63;;;;;;;;;;5014248;28;20468;-55
2022/02/07 08:02:28;;;;;;;35.28;24.30;;;;;;;;;;5014964;28;20048;-56
2022/02/07 08:04:56;;;;;;;35.33;23.17;;;;;;;;;;5013462;28;20030;-57
2022/02/07 08:07:31;;;;;;;24.30;18.13;;;;;;;;;;5015584;28;20018;-57
2022/02/07 08:12:26;;;;;;;35.40;25.90;;;;;;;;;;5015588;28;20539;-57
2022/02/07 08:14:52;;;;;;;21.83;12.23;;;;;;;;;;5014296;28;20062;-55
2022/02/07 08:17:21;;;;;;;11.87;6.17;;;;;;;;;;5015338;28;20084;-59
2022/02/07 08:19:47;;;;;;;6.20;2.07;;;;;;;;;;5013769;28;20462;-59
2022/02/07 08:22:13;;;;;;;4.37;1.37;;;;;;;;;;5013915;28;20483;-58
2022/02/07 08:24:40;;;;;;;4.87;1.10;;;;;;;;;;5014744;28;20038;-58
2022/02/07 08:27:06;;;;;;;5.97;0.87;;;;;;;;;;5015196;28;20021;-59
2022/02/07 08:29:32;;;;;;;4.50;0.50;;;;;;;;;;5014577;28;20026;-55
2022/02/07 08:31:58;;;;;;;4.10;0.40;;;;;;;;;;5022270;28;20029;-58
2022/02/07 08:34:24;;;;;;;7.32;0.93;;;;;;;;;;5022084;28;20018;-58
2022/02/07 08:36:52;;;;;;;6.10;0.50;;;;;;;;;;5013905;28;20037;-59
2022/02/07 08:48:29;;;;;;;6.50;0.50;;;;;;;;;;5013731;28;20101;-58
2022/02/07 08:50:57;;;;;;;11.75;1.00;;;;;;;;;;5014706;28;20551;-56
2022/02/07 08:53:26;;;;;;;8.77;0.52;;;;;;;;;;5013049;28;20487;-56
2022/02/07 08:55:52;;;;;;;9.18;1.20;;;;;;;;;;5014630;28;20505;-57
2022/02/07 08:58:23;;;;;;;7.55;0.70;;;;;;;;;;5012754;28;20244;-58
2022/02/07 09:01:43;;;;;;;10.90;0.80;;;;;;;;;;5014216;28;20368;-58
2022/02/07 09:09:04;;;;;;;4.35;1.63;;;;;;;;;;5014050;28;20049;-57
2022/02/07 09:11:30;;;;;;;4.78;0.45;;;;;;;;;;5012327;28;20026;-59
2022/02/07 09:13:57;;;;;;;8.88;0.70;;;;;;;;;;5013894;28;20041;-55
2022/02/07 09:16:29;;;;;;;6.10;1.65;;;;;;;;;;5013388;28;20022;-56
2022/02/07 09:18:56;;;;;;;97.45;8.13;;;;;;;;;;5013698;28;20121;-56
2022/02/07 09:21:22;;;;;;;14.15;2.70;;;;;;;;;;5014026;28;20493;-57
2022/02/07 09:23:48;;;;;;;20.25;1.40;;;;;;;;;;5012018;28;20041;-57
2022/02/07 09:26:14;;;;;;;12.23;2.15;;;;;;;;;;5014348;28;20029;-57
2022/02/07 09:28:42;;;;;;;11.68;1.48;;;;;;;;;;5012830;28;20057;-57
2022/02/07 09:31:08;;;;;;;6.93;1.67;;;;;;;;;;5013178;28;20029;-57
2022/02/07 09:33:34;;;;;;;12.68;0.85;;;;;;;;;;5011202;28;20041;-58
2022/02/07 09:36:19;;;;;;;6.90;0.73;;;;;;;;;;5012189;28;20034;-58
2022/02/07 09:38:45;;;;;;;22.45;2.25;;;;;;;;;;5009111;28;20477;-59
2022/02/07 09:41:12;;;;;;;4.45;0.40;;;;;;;;;;5013718;28;20054;-58
2022/02/07 09:43:45;;;;;;;12.77;0.88;;;;;;;;;;5011428;28;20052;-57
2022/02/07 09:46:18;;;;;;;17.92;2.05;;;;;;;;;;5013840;28;20022;-58
2022/02/07 09:48:44;;;;;;;8.90;0.70;;;;;;;;;;5011678;28;20444;-57
2022/02/07 09:51:11;;;;;;;16.38;1.00;;;;;;;;;;5011275;28;20121;-56
2022/02/07 09:53:38;;;;;;;15.68;1.08;;;;;;;;;;5012834;28;20140;-58
2022/02/07 09:56:05;;;;;;;6.90;0.77;;;;;;;;;;5012542;28;20030;-59
2022/02/07 09:58:33;;;;;;;10.75;0.90;;;;;;;;;;5011636;28;20038;-58
2022/02/07 10:01:01;;;;;;;49.00;4.32;;;;;;;;;;5012395;28;20054;-59
2022/02/07 10:03:33;;;;;;;25.30;1.92;;;;;;;;;;5008158;28;20096;-58
2022/02/07 10:06:09;;;;;;;18.90;1.48;;;;;;;;;;5005766;28;20069;-57
2022/02/07 10:13:49;;;;;;;16.48;1.65;;;;;;;;;;5009775;28;20048;-57
2022/02/07 10:40:29;;;;;;;19.23;1.33;;;;;;;;;;5009171;28;20041;-58
2022/02/07 10:45:53;;;;;;;13.82;1.02;;;;;;;;;;5006979;28;19909;-59
2022/02/07 10:48:28;;;;;;;7.43;1.23;;;;;;;;;;5005801;28;20050;-59
2022/02/07 10:51:18;;;;;;;7.95;0.80;;;;;;;;;;5011364;28;20041;-58
2022/02/07 10:53:48;;;;;;;7.63;0.60;;;;;;;;;;5004253;28;20041;-58
2022/02/07 10:56:15;;;;;;;7.40;0.68;;;;;;;;;;5010552;28;20033;-59
2022/02/07 10:58:54;;;;;;;14.70;1.05;;;;;;;;;;5010096;28;20372;-58
2022/02/07 11:01:31;;;;;;;2.97;0.40;;;;;;;;;;5008840;28;20041;-58
2022/02/07 11:04:03;;;;;;;9.05;0.68;;;;;;;;;;4996574;28;20181;-59
2022/02/07 11:06:35;;;;;;;8.88;0.50;;;;;;;;;;5010110;28;20068;-58
2022/02/07 11:27:34;;;;;;;0.85;0.15;;;;;;;;;;5011790;28;20026;-62
2022/02/07 11:30:00;;;;;;;3.13;0.22;;;;;;;;;;5013102;28;20030;-62
2022/02/07 11:35:18;;;;;;;2.83;0.30;;;;;;;;;;5013418;28;20423;-62
2022/02/07 11:37:50;;;;;;;0.35;0.10;;;;;;;;;;5006046;28;20547;-62
2022/02/07 11:40:34;;;;;;;0.47;0.10;;;;;;;;;;5013027;28;20113;-62
2022/02/07 11:43:09;;;;;;;3.50;0.30;;;;;;;;;;5012622;28;20041;-61
2022/02/07 11:45:47;;;;;;;0.80;0.15;;;;;;;;;;5014452;28;20033;-61
2022/02/07 11:48:14;;;;;;;0.38;0.00;;;;;;;;;;5014768;28;20076;-62
2022/02/07 11:50:44;;;;;;;2.25;0.28;;;;;;;;;;5015648;28;20415;-61
2022/02/07 11:53:10;;;;;;;1.00;0.20;;;;;;;;;;5009809;28;20034;-62
2022/02/07 11:55:42;;;;;;;0.65;0.13;;;;;;;;;;4996028;28;20030;-62
2022/02/07 12:00:38;;;;;;;1.45;0.40;;;;;;;;;;5015833;28;20515;-62
2022/02/07 12:03:08;;;;;;;2.42;0.30;;;;;;;;;;5014668;28;20034;-61
2022/02/07 12:11:45;;;;;;;0.20;0.20;;;;;;;;;;5006358;28;20061;-62
2022/02/07 12:14:30;;;;;;;1.30;0.30;;;;;;;;;;5014292;28;20026;-64
2022/02/07 12:16:56;;;;;;;;;;;;;;;;;;5015040;28;20112;-62
2022/02/07 12:19:34;;;;;;;1.75;0.20;;;;;;;;;;5015463;28;19941;-63
2022/02/07 12:22:11;;;;;;;0.45;0.20;;;;;;;;;;5012664;28;20498;-63
2022/02/07 12:24:58;;;;;;;0.38;0.10;;;;;;;;;;5015390;28;20065;-63
2022/02/07 12:27:29;;;;;;;1.52;0.20;;;;;;;;;;5014525;28;20375;-63
2022/02/07 12:32:39;;;;;;;0.40;0.20;;;;;;;;;;5014649;28;20141;-63
2022/02/07 12:35:06;;;;;;;1.92;0.68;;;;;;;;;;5014489;28;20275;-62
2022/02/07 12:37:37;;;;;;;0.40;0.40;;;;;;;;;;5013740;28;20022;-62
2022/02/07 12:40:04;;;;;;;2.20;0.25;;;;;;;;;;5014182;28;20026;-62
2022/02/07 12:42:31;;;;;;;1.45;0.30;;;;;;;;;;5014003;28;20033;-62
2022/02/07 12:45:00;;;;;;;1.17;0.10;;;;;;;;;;5014958;28;20060;-62
2022/02/07 12:47:27;;;;;;;1.88;0.00;;;;;;;;;;5013729;28;20038;-62
2022/02/07 12:49:56;;;;;;;1.83;0.20;;;;;;;;;;5015038;28;20375;-62
2022/02/07 12:52:33;;;;;;;1.85;0.20;;;;;;;;;;5013949;28;20049;-63
2022/02/07 12:54:59;;;;;;;0.75;0.40;;;;;;;;;;5013832;28;20120;-63
2022/02/07 12:57:27;;;;;;;2.83;0.32;;;;;;;;;;5013724;28;20109;-62
2022/02/07 12:59:53;;;;;;;1.45;0.40;;;;;;;;;;5014538;28;20041;-61
2022/02/07 13:02:29;;;;;;;1.25;0.40;;;;;;;;;;5013584;28;20049;-62
2022/02/07 13:04:55;;;;;;;1.65;0.57;;;;;;;;;;5014675;28;20026;-62
2022/02/07 13:07:24;;;;;;;1.73;0.43;;;;;;;;;;5012715;28;20507;-61
2022/02/07 13:09:53;;;;;;;2.03;0.40;;;;;;;;;;5013553;28;20025;-62
2022/02/07 13:14:56;;;;;;;0.40;0.10;;;;;;;;;;5014557;28;20172;-62
2022/02/07 13:17:23;;;;;;;0.77;0.60;;;;;;;;;;5012187;28;20034;-62
2022/02/07 13:20:05;;;;;;;1.85;0.17;;;;;;;;;;5013525;28;20383;-62
2022/02/07 13:22:31;;;;;;;2.53;0.55;;;;;;;;;;5011966;28;20123;-62
2022/02/07 13:24:57;;;;;;;0.20;0.10;;;;;;;;;;5011941;28;20037;-62
2022/02/07 13:27:24;;;;;;;1.83;0.20;;;;;;;;;;5012879;28;20077;-63
2022/02/07 13:29:54;;;;;;;0.22;0.10;;;;;;;;;;5012894;28;20105;-63
2022/02/07 13:35:24;;;;;;;1.00;0.10;;;;;;;;;;5008388;28;20033;-63
2022/02/07 13:37:50;;;;;;;0.50;0.10;;;;;;;;;;5012916;28;20942;-63
2022/02/07 13:40:25;;;;;;;4.15;0.70;;;;;;;;;;5013670;28;20107;-62
2022/02/07 13:42:50;;;;;;;;;;;;;;;;;;5013860;28;20423;-62
2022/02/07 13:45:18;;;;;;;0.10;0.10;;;;;;;;;;5013748;28;19921;-62
2022/02/07 13:47:49;;;;;;;1.33;0.22;;;;;;;;;;5012621;28;20045;-63
2022/02/07 13:50:19;;;;;;;1.45;0.00;;;;;;;;;;5013919;28;20149;-62
2022/02/07 13:52:46;;;;;;;1.75;0.17;;;;;;;;;;5012844;28;20065;-63
2022/02/07 13:55:24;;;;;;;1.15;0.10;;;;;;;;;;5013880;28;20029;-63
2022/02/07 13:57:50;;;;;;;2.70;0.30;;;;;;;;;;5012686;28;20029;-63
2022/02/07 14:00:17;;;;;;;1.40;0.10;;;;;;;;;;5013160;28;20037;-62
2022/02/07 14:02:44;;;;;;;0.60;0.30;;;;;;;;;;5012552;28;20038;-62
2022/02/07 14:05:10;;;;;;;1.13;0.20;;;;;;;;;;5012998;28;20034;-62
2022/02/07 14:07:53;;;;;;;0.57;0.10;;;;;;;;;;5012523;28;20030;-62
2022/02/07 14:10:21;;;;;;;0.52;0.25;;;;;;;;;;5012169;28;20037;-62
2022/02/07 14:12:47;;;;;;;1.73;0.35;;;;;;;;;;5011459;28;20022;-62
2022/02/07 14:15:13;;;;;;;0.38;0.10;;;;;;;;;;5013223;28;20032;-61
2022/02/07 14:17:44;;;;;;;2.22;0.20;;;;;;;;;;5012593;28;20415;-63
2022/02/07 14:20:13;;;;;;;1.02;0.10;;;;;;;;;;4993718;28;20073;-62
2022/02/07 14:22:39;;;;;;;3.47;0.57;;;;;;;;;;4993268;28;20045;-62
2022/02/07 14:25:07;;;;;;;1.75;0.10;;;;;;;;;;5012752;28;20057;-62
2022/02/07 14:27:33;;;;;;;0.50;0.20;;;;;;;;;;5013202;28;20026;-62
2022/02/07 14:29:59;;;;;;;1.00;0.38;;;;;;;;;;5012391;28;20097;-62
2022/02/07 14:32:25;;;;;;;3.22;0.90;;;;;;;;;;5013417;28;20079;-62
2022/02/07 14:34:51;;;;;;;2.85;0.43;;;;;;;;;;5011185;28;20541;-62
2022/02/07 14:37:18;;;;;;;2.08;0.20;;;;;;;;;;5013142;28;20104;-62
2022/02/07 14:39:44;;;;;;;0.80;0.20;;;;;;;;;;5012844;28;20415;-62
2022/02/07 14:42:11;;;;;;;0.25;0.10;;;;;;;;;;5013054;28;20395;-63
2022/02/07 14:44:56;;;;;;;1.45;0.25;;;;;;;;;;5010636;28;20030;-62
2022/02/07 14:47:38;;;;;;;0.95;0.20;;;;;;;;;;5011663;28;20137;-62
2022/02/07 14:50:04;;;;;;;1.60;0.20;;;;;;;;;;5012342;28;20044;-62
2022/02/07 14:52:30;;;;;;;0.82;0.20;;;;;;;;;;5013226;28;20080;-62
2022/02/07 14:54:56;;;;;;;1.27;0.47;;;;;;;;;;5009954;28;20030;-62
2022/02/07 14:57:22;;;;;;;1.58;0.40;;;;;;;;;;5012815;28;20092;-62
2022/02/07 14:59:48;;;;;;;1.70;0.30;;;;;;;;;;5014289;28;20026;-62
2022/02/07 15:02:15;;;;;;;1.02;0.20;;;;;;;;;;5015658;28;20029;-63
2022/02/07 15:04:41;;;;;;;1.20;0.20;;;;;;;;;;5013721;28;20037;-62
2022/02/07 15:07:07;;;;;;;0.22;0.10;;;;;;;;;;5016541;28;20025;-62
2022/02/07 15:09:33;;;;;;;1.02;0.20;;;;;;;;;;5014128;28;20034;-62
2022/02/07 15:12:00;;;;;;;3.30;0.40;;;;;;;;;;5016478;28;20041;-62
2022/02/07 15:14:26;;;;;;;1.52;0.57;;;;;;;;;;5015360;28;20117;-63
2022/02/07 15:16:52;;;;;;;0.38;0.20;;;;;;;;;;5015393;28;20018;-62
2022/02/07 15:19:18;;;;;;;1.63;0.30;;;;;;;;;;5015482;28;20113;-63
2022/02/07 15:21:45;;;;;;;0.40;0.20;;;;;;;;;;5014999;28;20136;-62
2022/02/07 15:24:11;;;;;;;0.65;0.20;;;;;;;;;;5013725;28;20092;-62
2022/02/07 15:38:53;;;;;;;1.40;0.30;;;;;;;;;;5010139;28;20037;-62
2022/02/07 15:41:19;;;;;;;1.88;0.30;;;;;;;;;;5014911;28;20061;-62
2022/02/07 15:43:46;;;;;;;0.32;0.20;;;;;;;;;;5015535;28;20128;-62
2022/02/07 15:46:12;;;;;;;0.52;0.10;;;;;;;;;;5014450;28;20022;-62
2022/02/07 15:48:38;;;;;;;4.80;0.68;;;;;;;;;;5014790;28;20121;-62
2022/02/07 15:51:05;;;;;;;1.65;0.30;;;;;;;;;;5015655;28;20105;-62
2022/02/07 15:53:31;;;;;;;3.08;0.28;;;;;;;;;;5014868;28;20466;-62
2022/02/07 15:55:57;;;;;;;2.78;0.30;;;;;;;;;;5014795;28;20565;-63
2022/02/07 15:58:23;;;;;;;0.98;0.38;;;;;;;;;;5014745;28;20049;-62
2022/02/07 16:00:49;;;;;;;1.27;0.38;;;;;;;;;;5015998;28;20599;-63
2022/02/07 16:03:15;;;;;;;1.90;0.40;;;;;;;;;;5014471;28;20033;-63
2022/02/07 16:05:41;;;;;;;2.08;0.40;;;;;;;;;;5015574;28;20030;-62
2022/02/07 16:08:08;;;;;;;1.70;0.45;;;;;;;;;;5015123;28;20034;-63
2022/02/07 16:10:37;;;;;;;2.15;0.20;;;;;;;;;;5015401;28;20480;-62
2022/02/07 16:15:42;;;;;;;1.42;0.28;;;;;;;;;;5014737;28;20033;-62
2022/02/07 16:18:08;;;;;;;0.52;0.28;;;;;;;;;;5014157;28;20037;-62
2022/02/07 16:20:39;;;;;;;0.60;0.30;;;;;;;;;;5014222;28;20049;-62
2022/02/07 16:23:08;;;;;;;0.70;0.20;;;;;;;;;;5014503;28;20084;-62
2022/02/07 16:25:39;;;;;;;0.75;0.13;;;;;;;;;;5015158;28;20411;-62
2022/02/07 16:28:05;;;;;;;1.77;0.55;;;;;;;;;;5014441;28;20034;-63
2022/02/07 16:30:31;;;;;;;2.60;0.50;;;;;;;;;;5015098;28;20028;-62
2022/02/07 16:32:57;;;;;;;2.92;0.60;;;;;;;;;;5014325;28;20076;-62
2022/02/07 16:35:23;;;;;;;2.47;0.60;;;;;;;;;;5015128;28;20030;-62
2022/02/07 16:37:49;;;;;;;0.93;0.57;;;;;;;;;;5014448;28;20034;-62
2022/02/07 16:40:16;;;;;;;1.75;0.63;;;;;;;;;;5015461;28;20050;-62
2022/02/07 16:42:42;;;;;;;3.20;0.43;;;;;;;;;;5014149;28;20038;-62
2022/02/07 16:48:00;;;;;;;2.50;0.70;;;;;;;;;;5003903;28;20042;-62
2022/02/07 16:50:26;;;;;;;1.50;0.52;;;;;;;;;;5015074;28;20033;-62
2022/02/07 16:52:52;;;;;;;4.97;0.70;;;;;;;;;;5014097;28;20033;-62
2022/02/07 16:55:18;;;;;;;2.33;0.77;;;;;;;;;;5013488;28;20105;-62
2022/02/07 16:57:44;;;;;;;1.95;0.63;;;;;;;;;;5012821;28;20437;-62
2022/02/07 17:00:10;;;;;;;2.00;0.50;;;;;;;;;;5014687;28;20022;-62
2022/02/07 17:02:38;;;;;;;4.47;0.93;;;;;;;;;;5013908;28;20038;-62
2022/02/07 17:05:05;;;;;;;1.50;0.52;;;;;;;;;;5013972;28;20037;-62
2022/02/07 17:07:31;;;;;;;3.97;0.80;;;;;;;;;;5013739;28;20034;-62
2022/02/07 17:09:57;;;;;;;1.88;0.50;;;;;;;;;;5014508;28;20489;-62
2022/02/07 17:12:23;;;;;;;1.50;0.95;;;;;;;;;;5013610;28;20030;-62
2022/02/07 17:14:51;;;;;;;1.60;0.60;;;;;;;;;;5014464;28;20028;-62
2022/02/07 17:17:17;;;;;;;0.77;0.60;;;;;;;;;;5013650;28;20120;-62
2022/02/07 17:19:43;;;;;;;5.18;2.28;;;;;;;;;;5014555;28;20037;-62
2022/02/07 17:22:13;;;;;;;6.88;4.13;;;;;;;;;;5012737;28;20590;-62
2022/02/07 17:24:39;;;;;;;3.75;1.92;;;;;;;;;;5013630;28;20026;-63
2022/02/07 17:27:05;;;;;;;1.63;0.93;;;;;;;;;;5011869;28;20030;-62
2022/02/07 17:29:31;;;;;;;3.38;0.47;;;;;;;;;;5013929;28;20022;-62
2022/02/07 17:31:57;;;;;;;2.53;0.40;;;;;;;;;;5012048;28;20030;-62
2022/02/07 17:34:24;;;;;;;1.45;0.45;;;;;;;;;;5013755;28;20021;-62
2022/02/07 17:36:50;;;;;;;1.02;0.63;;;;;;;;;;5013441;28;20029;-62
2022/02/07 17:39:17;;;;;;;2.50;0.57;;;;;;;;;;5014332;28;20025;-62
2022/02/07 17:41:43;;;;;;;0.80;0.30;;;;;;;;;;5012918;28;20033;-62
2022/02/07 17:44:11;;;;;;;2.35;0.63;;;;;;;;;;5012961;28;20034;-63
2022/02/07 17:46:37;;;;;;;1.85;0.20;;;;;;;;;;5012504;28;20029;-64
2022/02/07 17:49:04;;;;;;;1.00;0.55;;;;;;;;;;5008329;28;20049;-65
2022/02/07 17:51:32;;;;;;;3.88;0.60;;;;;;;;;;5009510;28;20494;-65
2022/02/07 17:53:59;;;;;;;2.08;0.75;;;;;;;;;;5013430;28;20022;-65
2022/02/07 17:56:25;;;;;;;1.08;0.35;;;;;;;;;;5012905;28;20394;-64
2022/02/07 17:59:00;;;;;;;1.85;0.30;;;;;;;;;;5013897;28;20029;-64
2022/02/07 18:01:27;;;;;;;0.77;0.40;;;;;;;;;;5010790;28;20053;-64
2022/02/07 18:03:53;;;;;;;2.45;0.50;;;;;;;;;;5013269;28;20065;-64
2022/02/07 18:06:21;;;;;;;2.05;1.02;;;;;;;;;;5010896;28;20392;-64